Terminal Aerodrome Forecast
Issued by NWS

Home | Current Version | Previous Version | Text Only | Print | Product List | Glossary On
Versions: 1 2 3 4 5 6 7 8 9 10 11 12
326
FTUS43 KICT 100523
TAFSLN
TAF
KSLN 100523Z 1006/1106 VRB04KT P6SM OVC070
     FM100900 20007KT P6SM BKN070
     FM101800 28015KT P6SM SKC
     FM110100 32008KT P6SM SKC=

USA.gov is the U.S. government's official web portal to all federal, state and local government web resources and services.